SWR3232 EFHK-LSZH
Flight info
| Callsign | SWR3232 |
|---|---|
| Flight time | 2h 28m |
| Altitude | 36000 |
| Route | VALOX DCT DANKA DCT ROSAX DCT LEMSI DCT PIMEX DCT ANFEV DCT PENOR DCT BODLA DCT MILGU DCT AMOSA N869 TEDGO/N0414F230 T724 RILAX |
| Aircraft | A343/H-SDE2E3FGHIJ4J5M1RWXY/LB1D1 |
Departure
| Time | 2026-05-05 13:55 |
|---|---|
| Airport | Helsinki Vantaa Airport (EFHK) |
Arrival
| Time | 2026-05-05 16:23 |
|---|---|
| Airport | Zürich Airport (LSZH) |
| Time | Latitude | Longitude | Altitude | Speed | Heading |
|---|---|---|---|---|---|
| 2026-05-05 13:33 | 60.31509 | 24.95716 | 170 ft | 0 kts | 137° |
| 2026-05-05 13:46 | 60.31524 | 24.95687 | 170 ft | 4 kts | 136° |
| 2026-05-05 13:46 | 60.31542 | 24.95652 | 170 ft | 4 kts | 130° |
| 2026-05-05 13:46 | 60.31551 | 24.95627 | 170 ft | 3 kts | 115° |
| 2026-05-05 13:46 | 60.31556 | 24.95605 | 170 ft | 2 kts | 82° |
| 2026-05-05 13:47 | 60.31553 | 24.95583 | 170 ft | 2 kts | 58° |
| 2026-05-05 13:47 | 60.31547 | 24.95564 | 170 ft | 2 kts | 51° |
| 2026-05-05 13:47 | 60.31541 | 24.95548 | 170 ft | 2 kts | 48° |
| 2026-05-05 13:47 | 60.31536 | 24.95538 | 170 ft | 0 kts | 48° |
| 2026-05-05 13:48 | 60.31537 | 24.95540 | 170 ft | 0 kts | 48° |
| 2026-05-05 13:48 | 60.31540 | 24.95546 | 170 ft | 1 kts | 48° |
| 2026-05-05 13:48 | 60.31545 | 24.95558 | 170 ft | 2 kts | 48° |
| 2026-05-05 13:49 | 60.31561 | 24.95593 | 170 ft | 5 kts | 48° |
| 2026-05-05 13:49 | 60.31592 | 24.95654 | 170 ft | 8 kts | 33° |
| 2026-05-05 13:49 | 60.31638 | 24.95647 | 170 ft | 7 kts | 327° |
| 2026-05-05 13:49 | 60.31679 | 24.95586 | 170 ft | 8 kts | 321° |
| 2026-05-05 13:50 | 60.31720 | 24.95553 | 172 ft | 5 kts | 0° |
| 2026-05-05 13:50 | 60.31741 | 24.95569 | 173 ft | 3 kts | 27° |
| 2026-05-05 13:50 | 60.31765 | 24.95602 | 173 ft | 7 kts | 39° |
| 2026-05-05 13:50 | 60.31817 | 24.95709 | 173 ft | 14 kts | 47° |
| 2026-05-05 13:51 | 60.31899 | 24.95895 | 173 ft | 21 kts | 48° |
| 2026-05-05 13:51 | 60.32008 | 24.95880 | 176 ft | 17 kts | 320° |
| 2026-05-05 13:51 | 60.32101 | 24.95709 | 176 ft | 20 kts | 317° |
| 2026-05-05 13:51 | 60.32212 | 24.95497 | 177 ft | 23 kts | 316° |
| 2026-05-05 13:52 | 60.32338 | 24.95283 | 180 ft | 24 kts | 327° |
| 2026-05-05 13:52 | 60.32504 | 24.95166 | 183 ft | 26 kts | 342° |
| 2026-05-05 13:52 | 60.32688 | 24.95045 | 183 ft | 30 kts | 341° |
| 2026-05-05 13:52 | 60.32891 | 24.94907 | 178 ft | 30 kts | 334° |
| 2026-05-05 13:53 | 60.33040 | 24.94643 | 194 ft | 20 kts | 320° |
| 2026-05-05 13:53 | 60.33137 | 24.94464 | 205 ft | 18 kts | 313° |
| 2026-05-05 13:53 | 60.33144 | 24.94424 | 206 ft | 1 kts | 270° |
| 2026-05-05 13:53 | 60.33137 | 24.94414 | 201 ft | 1 kts | 218° |
| 2026-05-05 13:54 | 60.33115 | 24.94388 | 203 ft | 6 kts | 210° |
| 2026-05-05 13:54 | 60.33087 | 24.94332 | 204 ft | 0 kts | 229° |
| 2026-05-05 13:54 | 60.33086 | 24.94330 | 204 ft | 4 kts | 229° |
| 2026-05-05 13:54 | 60.32939 | 24.94005 | 204 ft | 58 kts | 227° |
| 2026-05-05 13:55 | 60.32557 | 24.93154 | 181 ft | 103 kts | 227° |
| 2026-05-05 13:55 | 60.31977 | 24.91876 | 158 ft | 142 kts | 231° |
| 2026-05-05 13:55 | 60.31315 | 24.90390 | 590 ft | 135 kts | 232° |
| 2026-05-05 13:55 | 60.30803 | 24.88914 | 1031 ft | 128 kts | 257° |
| 2026-05-05 13:56 | 60.30710 | 24.87070 | 1283 ft | 139 kts | 266° |
| 2026-05-05 13:56 | 60.30655 | 24.85120 | 1390 ft | 147 kts | 268° |
| 2026-05-05 13:56 | 60.30627 | 24.82921 | 1576 ft | 165 kts | 267° |
| 2026-05-05 13:56 | 60.30537 | 24.80473 | 1843 ft | 186 kts | 265° |
| 2026-05-05 13:57 | 60.30361 | 24.77694 | 2177 ft | 211 kts | 256° |
| 2026-05-05 13:57 | 60.29804 | 24.74854 | 2648 ft | 230 kts | 249° |
| 2026-05-05 13:57 | 60.29175 | 24.71822 | 3352 ft | 236 kts | 249° |
| 2026-05-05 13:57 | 60.28548 | 24.68749 | 4212 ft | 239 kts | 249° |
| 2026-05-05 13:58 | 60.27909 | 24.65608 | 4978 ft | 245 kts | 249° |
| 2026-05-05 13:58 | 60.27259 | 24.62423 | 5808 ft | 247 kts | 249° |
| 2026-05-05 13:58 | 60.26604 | 24.59222 | 6611 ft | 248 kts | 249° |
| 2026-05-05 13:58 | 60.25946 | 24.56008 | 7448 ft | 247 kts | 249° |
| 2026-05-05 13:59 | 60.24456 | 24.49920 | 9305 ft | 241 kts | 234° |
| 2026-05-05 13:59 | 60.23179 | 24.47729 | 10138 ft | 248 kts | 216° |
| 2026-05-05 14:00 | 60.19718 | 24.45047 | 10818 ft | 283 kts | 206° |
| 2026-05-05 14:00 | 60.18455 | 24.44216 | 11007 ft | 293 kts | 206° |
| 2026-05-05 14:00 | 60.15807 | 24.42464 | 11404 ft | 311 kts | 205° |
| 2026-05-05 14:00 | 60.13710 | 24.41059 | 11718 ft | 324 kts | 205° |
| 2026-05-05 14:01 | 60.11545 | 24.39605 | 12192 ft | 331 kts | 206° |
| 2026-05-05 14:01 | 60.09354 | 24.38133 | 12826 ft | 333 kts | 206° |
| 2026-05-05 14:01 | 60.07148 | 24.36648 | 13506 ft | 335 kts | 206° |
| 2026-05-05 14:01 | 60.04931 | 24.35152 | 14097 ft | 337 kts | 206° |
| 2026-05-05 14:02 | 60.02694 | 24.33643 | 14637 ft | 341 kts | 206° |
| 2026-05-05 14:02 | 60.00428 | 24.32115 | 15207 ft | 345 kts | 206° |
| 2026-05-05 14:02 | 59.98147 | 24.30579 | 15747 ft | 348 kts | 206° |
| 2026-05-05 14:02 | 59.95833 | 24.29020 | 16181 ft | 353 kts | 206° |
| 2026-05-05 14:03 | 59.93492 | 24.27445 | 16681 ft | 357 kts | 206° |
| 2026-05-05 14:03 | 59.91127 | 24.25860 | 17259 ft | 359 kts | 206° |
| 2026-05-05 14:03 | 59.88778 | 24.24288 | 17822 ft | 362 kts | 206° |
| 2026-05-05 14:03 | 59.86373 | 24.22679 | 18330 ft | 365 kts | 206° |
| 2026-05-05 14:04 | 59.83959 | 24.21067 | 18815 ft | 367 kts | 206° |
| 2026-05-05 14:04 | 59.81530 | 24.19446 | 19297 ft | 369 kts | 206° |
| 2026-05-05 14:04 | 59.79082 | 24.17816 | 19785 ft | 372 kts | 206° |
| 2026-05-05 14:04 | 59.76620 | 24.16179 | 20265 ft | 374 kts | 206° |
| 2026-05-05 14:05 | 59.74173 | 24.14426 | 20733 ft | 373 kts | 210° |
| 2026-05-05 14:05 | 59.71889 | 24.12065 | 21202 ft | 369 kts | 217° |
| 2026-05-05 14:05 | 59.69735 | 24.09307 | 21631 ft | 369 kts | 220° |
| 2026-05-05 14:05 | 59.67659 | 24.06407 | 22043 ft | 370 kts | 221° |
| 2026-05-05 14:06 | 59.65576 | 24.03392 | 22505 ft | 372 kts | 222° |
| 2026-05-05 14:06 | 59.63488 | 24.00350 | 22944 ft | 373 kts | 222° |
| 2026-05-05 14:06 | 59.61387 | 23.97308 | 23390 ft | 376 kts | 221° |
| 2026-05-05 14:06 | 59.59267 | 23.94271 | 23736 ft | 378 kts | 221° |
| 2026-05-05 14:07 | 59.57121 | 23.91218 | 24064 ft | 381 kts | 221° |
| 2026-05-05 14:07 | 59.54960 | 23.88171 | 24391 ft | 383 kts | 221° |
| 2026-05-05 14:07 | 59.52781 | 23.85114 | 24721 ft | 385 kts | 221° |
| 2026-05-05 14:07 | 59.50593 | 23.82054 | 25050 ft | 387 kts | 221° |
| 2026-05-05 14:08 | 59.48406 | 23.78935 | 25374 ft | 387 kts | 223° |
| 2026-05-05 14:08 | 59.46333 | 23.75536 | 25687 ft | 387 kts | 225° |
| 2026-05-05 14:08 | 59.44301 | 23.72046 | 26012 ft | 389 kts | 226° |
| 2026-05-05 14:08 | 59.42307 | 23.68543 | 26304 ft | 390 kts | 226° |
| 2026-05-05 14:09 | 59.40289 | 23.64961 | 26611 ft | 392 kts | 227° |
| 2026-05-05 14:09 | 59.38265 | 23.61358 | 26900 ft | 394 kts | 227° |
| 2026-05-05 14:09 | 59.36227 | 23.57735 | 27173 ft | 396 kts | 226° |
| 2026-05-05 14:09 | 59.34179 | 23.54109 | 27475 ft | 398 kts | 226° |
| 2026-05-05 14:10 | 59.32120 | 23.50474 | 27751 ft | 400 kts | 226° |
| 2026-05-05 14:10 | 59.30049 | 23.46830 | 28027 ft | 401 kts | 226° |
| 2026-05-05 14:10 | 59.27964 | 23.43171 | 28286 ft | 403 kts | 226° |
| 2026-05-05 14:10 | 59.25867 | 23.39500 | 28561 ft | 405 kts | 226° |
| 2026-05-05 14:11 | 59.23760 | 23.35818 | 28826 ft | 406 kts | 226° |
| 2026-05-05 14:11 | 59.21646 | 23.32129 | 28959 ft | 409 kts | 226° |
| 2026-05-05 14:11 | 59.19513 | 23.28413 | 29201 ft | 411 kts | 226° |
| 2026-05-05 14:11 | 59.17414 | 23.24765 | 29576 ft | 410 kts | 226° |
| 2026-05-05 14:12 | 59.15285 | 23.21073 | 29964 ft | 408 kts | 226° |
| 2026-05-05 14:12 | 59.13163 | 23.17400 | 30240 ft | 408 kts | 226° |
| 2026-05-05 14:12 | 59.11042 | 23.13731 | 30503 ft | 407 kts | 226° |
| 2026-05-05 14:12 | 59.08921 | 23.10068 | 30767 ft | 407 kts | 226° |
| 2026-05-05 14:13 | 59.06800 | 23.06411 | 31033 ft | 407 kts | 226° |
| 2026-05-05 14:13 | 59.04680 | 23.02761 | 31293 ft | 407 kts | 226° |
| 2026-05-05 14:13 | 59.02564 | 22.99125 | 31551 ft | 406 kts | 226° |
| 2026-05-05 14:13 | 59.00447 | 22.95493 | 31812 ft | 406 kts | 226° |
| 2026-05-05 14:14 | 58.98328 | 22.91864 | 31937 ft | 408 kts | 226° |
| 2026-05-05 14:14 | 58.96195 | 22.88214 | 32093 ft | 410 kts | 225° |
| 2026-05-05 14:14 | 58.94058 | 22.84568 | 32361 ft | 409 kts | 225° |
| 2026-05-05 14:14 | 58.91925 | 22.80936 | 32627 ft | 408 kts | 225° |
| 2026-05-05 14:15 | 58.89791 | 22.77308 | 32883 ft | 408 kts | 225° |
| 2026-05-05 14:15 | 58.87664 | 22.73698 | 33119 ft | 407 kts | 225° |
| 2026-05-05 14:15 | 58.85531 | 22.70085 | 33507 ft | 404 kts | 225° |
| 2026-05-05 14:15 | 58.83424 | 22.66523 | 33786 ft | 403 kts | 225° |
| 2026-05-05 14:16 | 58.81314 | 22.62958 | 33939 ft | 404 kts | 225° |
| 2026-05-05 14:16 | 58.79200 | 22.59390 | 34074 ft | 404 kts | 225° |
| 2026-05-05 14:16 | 58.77077 | 22.55815 | 34212 ft | 405 kts | 225° |
| 2026-05-05 14:16 | 58.74976 | 22.52281 | 34272 ft | 408 kts | 225° |
| 2026-05-05 14:17 | 58.70683 | 22.45082 | 34525 ft | 409 kts | 225° |
| 2026-05-05 14:17 | 58.68535 | 22.41493 | 34677 ft | 410 kts | 225° |
| 2026-05-05 14:17 | 58.66381 | 22.37897 | 34801 ft | 410 kts | 225° |
| 2026-05-05 14:18 | 58.62035 | 22.30659 | 34872 ft | 416 kts | 225° |
| 2026-05-05 14:18 | 58.57666 | 22.23412 | 34870 ft | 414 kts | 225° |
| 2026-05-05 14:19 | 58.53305 | 22.16204 | 34841 ft | 414 kts | 225° |
| 2026-05-05 14:19 | 58.48931 | 22.08995 | 34876 ft | 415 kts | 224° |
| 2026-05-05 14:20 | 58.44546 | 22.01791 | 34876 ft | 416 kts | 224° |
| 2026-05-05 14:20 | 58.40157 | 21.94609 | 34875 ft | 416 kts | 224° |
| 2026-05-05 14:21 | 58.36503 | 21.88648 | 34876 ft | 416 kts | 224° |
| 2026-05-05 14:21 | 58.31395 | 21.80341 | 34876 ft | 416 kts | 224° |
| 2026-05-05 14:22 | 58.26989 | 21.73201 | 34879 ft | 418 kts | 224° |
| 2026-05-05 14:22 | 58.22557 | 21.66044 | 34878 ft | 418 kts | 224° |
| 2026-05-05 14:23 | 58.18865 | 21.60103 | 34881 ft | 418 kts | 224° |
| 2026-05-05 14:23 | 58.14419 | 21.52970 | 34881 ft | 418 kts | 224° |
| 2026-05-05 14:24 | 58.09975 | 21.45863 | 34887 ft | 419 kts | 224° |
| 2026-05-05 14:24 | 58.05519 | 21.38759 | 34885 ft | 420 kts | 224° |
| 2026-05-05 14:25 | 58.01034 | 21.31633 | 34888 ft | 422 kts | 223° |
| 2026-05-05 14:25 | 57.96538 | 21.24516 | 34887 ft | 422 kts | 223° |
| 2026-05-05 14:26 | 57.92042 | 21.17423 | 34889 ft | 420 kts | 224° |
| 2026-05-05 14:26 | 57.87561 | 21.10379 | 34889 ft | 420 kts | 224° |
| 2026-05-05 14:27 | 57.83078 | 21.03355 | 34881 ft | 420 kts | 223° |
| 2026-05-05 14:27 | 57.78597 | 20.96353 | 34889 ft | 423 kts | 223° |
| 2026-05-05 14:28 | 57.74074 | 20.89312 | 34888 ft | 423 kts | 223° |
| 2026-05-05 14:28 | 57.69537 | 20.82275 | 34893 ft | 423 kts | 223° |
| 2026-05-05 14:29 | 57.65004 | 20.75267 | 34894 ft | 423 kts | 223° |
| 2026-05-05 14:29 | 57.60470 | 20.68280 | 34867 ft | 423 kts | 223° |
| 2026-05-05 14:30 | 57.55919 | 20.61289 | 34885 ft | 424 kts | 223° |
| 2026-05-05 14:30 | 57.51362 | 20.54314 | 34897 ft | 424 kts | 223° |
| 2026-05-05 14:31 | 57.46803 | 20.47359 | 34900 ft | 424 kts | 223° |
| 2026-05-05 14:31 | 57.42222 | 20.40394 | 34900 ft | 424 kts | 223° |
| 2026-05-05 14:32 | 57.37681 | 20.33512 | 34884 ft | 424 kts | 223° |
| 2026-05-05 14:32 | 57.33106 | 20.26602 | 34896 ft | 424 kts | 222° |
| 2026-05-05 14:33 | 57.28532 | 20.19715 | 34891 ft | 424 kts | 222° |
| 2026-05-05 14:33 | 57.23956 | 20.12850 | 34896 ft | 424 kts | 222° |
| 2026-05-05 14:34 | 57.19376 | 20.06000 | 34891 ft | 424 kts | 222° |
| 2026-05-05 14:34 | 57.14792 | 19.99165 | 34891 ft | 424 kts | 222° |
| 2026-05-05 14:35 | 57.10201 | 19.92345 | 34896 ft | 424 kts | 222° |
| 2026-05-05 14:35 | 57.05607 | 19.85541 | 34896 ft | 424 kts | 222° |
| 2026-05-05 14:36 | 57.01036 | 19.78792 | 34899 ft | 426 kts | 222° |
| 2026-05-05 14:36 | 56.96406 | 19.71980 | 34899 ft | 427 kts | 222° |
| 2026-05-05 14:37 | 56.91770 | 19.65184 | 34874 ft | 427 kts | 222° |
| 2026-05-05 14:37 | 56.87137 | 19.58413 | 34897 ft | 426 kts | 222° |
| 2026-05-05 14:38 | 56.82507 | 19.51669 | 34897 ft | 426 kts | 221° |
| 2026-05-05 14:38 | 56.77873 | 19.44939 | 34897 ft | 426 kts | 221° |
| 2026-05-05 14:39 | 56.73227 | 19.38214 | 34901 ft | 426 kts | 221° |
| 2026-05-05 14:39 | 56.68572 | 19.31498 | 34884 ft | 426 kts | 221° |
| 2026-05-05 14:40 | 56.63960 | 19.24866 | 34905 ft | 425 kts | 221° |
| 2026-05-05 14:40 | 56.59326 | 19.18223 | 34905 ft | 425 kts | 221° |
| 2026-05-05 14:41 | 56.54680 | 19.11585 | 34905 ft | 425 kts | 221° |
| 2026-05-05 14:41 | 56.50034 | 19.04968 | 34906 ft | 425 kts | 221° |
| 2026-05-05 14:42 | 56.45385 | 18.98367 | 34884 ft | 425 kts | 221° |
| 2026-05-05 14:42 | 56.40735 | 18.91786 | 34903 ft | 424 kts | 221° |
| 2026-05-05 14:43 | 56.36090 | 18.85235 | 34901 ft | 424 kts | 221° |
| 2026-05-05 14:43 | 56.31441 | 18.78696 | 34907 ft | 424 kts | 221° |
| 2026-05-05 14:44 | 56.26791 | 18.72178 | 34905 ft | 424 kts | 221° |
| 2026-05-05 14:44 | 56.22167 | 18.65717 | 34898 ft | 424 kts | 220° |
| 2026-05-05 14:45 | 56.17506 | 18.59226 | 34908 ft | 423 kts | 220° |
| 2026-05-05 14:45 | 56.12848 | 18.52758 | 34931 ft | 423 kts | 220° |
| 2026-05-05 14:46 | 56.08157 | 18.46258 | 34902 ft | 428 kts | 220° |
| 2026-05-05 14:46 | 56.03439 | 18.39751 | 34916 ft | 428 kts | 220° |
| 2026-05-05 14:47 | 55.98740 | 18.33290 | 34901 ft | 428 kts | 220° |
| 2026-05-05 14:47 | 55.94021 | 18.26822 | 34906 ft | 427 kts | 220° |
| 2026-05-05 14:48 | 55.89302 | 18.20372 | 34911 ft | 427 kts | 220° |
| 2026-05-05 14:48 | 55.84577 | 18.13935 | 34912 ft | 427 kts | 220° |
| 2026-05-05 14:49 | 55.79848 | 18.07512 | 34911 ft | 428 kts | 220° |
| 2026-05-05 14:49 | 55.75115 | 18.01103 | 34913 ft | 427 kts | 220° |
| 2026-05-05 14:50 | 55.70377 | 17.94709 | 34908 ft | 427 kts | 220° |
| 2026-05-05 14:50 | 55.65643 | 17.88339 | 34908 ft | 427 kts | 220° |
| 2026-05-05 14:51 | 55.60937 | 17.82026 | 34911 ft | 427 kts | 220° |
| 2026-05-05 14:51 | 55.56193 | 17.75683 | 34911 ft | 427 kts | 219° |
| 2026-05-05 14:52 | 55.51446 | 17.69355 | 34913 ft | 427 kts | 219° |
| 2026-05-05 14:52 | 55.46698 | 17.63045 | 34913 ft | 427 kts | 219° |
| 2026-05-05 14:53 | 55.41981 | 17.56795 | 34918 ft | 427 kts | 219° |
| 2026-05-05 14:53 | 55.37228 | 17.50518 | 34914 ft | 427 kts | 219° |
| 2026-05-05 14:54 | 55.32473 | 17.44257 | 34916 ft | 427 kts | 219° |
| 2026-05-05 14:54 | 55.27719 | 17.38018 | 34920 ft | 425 kts | 219° |
| 2026-05-05 14:55 | 55.22982 | 17.31818 | 34940 ft | 424 kts | 219° |
| 2026-05-05 14:55 | 55.18232 | 17.25624 | 34923 ft | 427 kts | 219° |
| 2026-05-05 14:56 | 55.13470 | 17.19429 | 34732 ft | 423 kts | 219° |
| 2026-05-05 14:56 | 55.11110 | 17.16366 | 34224 ft | 423 kts | 219° |
| 2026-05-05 14:56 | 55.08751 | 17.13309 | 33960 ft | 422 kts | 219° |
| 2026-05-05 14:57 | 55.04047 | 17.07226 | 33919 ft | 424 kts | 219° |
| 2026-05-05 14:57 | 54.99316 | 17.01128 | 33919 ft | 423 kts | 219° |
| 2026-05-05 14:58 | 54.94577 | 16.95038 | 33919 ft | 423 kts | 219° |
| 2026-05-05 14:58 | 54.89833 | 16.88958 | 33927 ft | 423 kts | 219° |
| 2026-05-05 14:59 | 54.85092 | 16.82902 | 33922 ft | 423 kts | 219° |
| 2026-05-05 14:59 | 54.80348 | 16.76860 | 33919 ft | 423 kts | 219° |
| 2026-05-05 15:00 | 54.76400 | 16.71846 | 33920 ft | 423 kts | 219° |
| 2026-05-05 15:00 | 54.70849 | 16.64817 | 33921 ft | 423 kts | 219° |
| 2026-05-05 15:01 | 54.66124 | 16.58851 | 33924 ft | 423 kts | 219° |
| 2026-05-05 15:01 | 54.61372 | 16.52871 | 33919 ft | 422 kts | 219° |
| 2026-05-05 15:02 | 54.56635 | 16.46928 | 33919 ft | 420 kts | 219° |
| 2026-05-05 15:02 | 54.51906 | 16.41009 | 33917 ft | 420 kts | 219° |
| 2026-05-05 15:03 | 54.47171 | 16.35100 | 33914 ft | 420 kts | 219° |
| 2026-05-05 15:03 | 54.42432 | 16.29205 | 33912 ft | 420 kts | 219° |
| 2026-05-05 15:04 | 54.37694 | 16.23330 | 33916 ft | 420 kts | 219° |
| 2026-05-05 15:04 | 54.32960 | 16.17475 | 33920 ft | 419 kts | 219° |
| 2026-05-05 15:05 | 54.25834 | 16.08692 | 33911 ft | 422 kts | 219° |
| 2026-05-05 15:06 | 54.21066 | 16.02837 | 33910 ft | 422 kts | 219° |
| 2026-05-05 15:06 | 54.16321 | 15.97030 | 33906 ft | 421 kts | 219° |
| 2026-05-05 15:07 | 54.11553 | 15.91211 | 33904 ft | 421 kts | 219° |
| 2026-05-05 15:07 | 54.06790 | 15.85413 | 33905 ft | 421 kts | 219° |
| 2026-05-05 15:08 | 54.02026 | 15.79630 | 33909 ft | 421 kts | 219° |
| 2026-05-05 15:08 | 53.98063 | 15.74832 | 33901 ft | 421 kts | 219° |
| 2026-05-05 15:09 | 53.92515 | 15.68137 | 33890 ft | 420 kts | 219° |
| 2026-05-05 15:09 | 53.88525 | 15.63334 | 33894 ft | 420 kts | 219° |
| 2026-05-05 15:10 | 53.83747 | 15.57600 | 33893 ft | 420 kts | 219° |
| 2026-05-05 15:10 | 53.78976 | 15.51888 | 33893 ft | 420 kts | 219° |
| 2026-05-05 15:11 | 53.74204 | 15.46192 | 33856 ft | 420 kts | 219° |
| 2026-05-05 15:11 | 53.69462 | 15.40548 | 33884 ft | 419 kts | 219° |
| 2026-05-05 15:12 | 53.64694 | 15.34889 | 33885 ft | 419 kts | 219° |
| 2026-05-05 15:12 | 53.59924 | 15.29243 | 33886 ft | 419 kts | 219° |
| 2026-05-05 15:13 | 53.55157 | 15.23616 | 33884 ft | 419 kts | 219° |
| 2026-05-05 15:13 | 53.50388 | 15.18002 | 33880 ft | 419 kts | 219° |
| 2026-05-05 15:14 | 53.45602 | 15.12384 | 33879 ft | 419 kts | 219° |
| 2026-05-05 15:14 | 53.40854 | 15.06828 | 33875 ft | 419 kts | 219° |
| 2026-05-05 15:15 | 53.36068 | 15.01243 | 33876 ft | 419 kts | 219° |
| 2026-05-05 15:15 | 53.31283 | 14.95674 | 33875 ft | 419 kts | 219° |
| 2026-05-05 15:16 | 53.26480 | 14.90099 | 33876 ft | 421 kts | 219° |
| 2026-05-05 15:16 | 53.21662 | 14.84522 | 33873 ft | 421 kts | 219° |
| 2026-05-05 15:17 | 53.16840 | 14.78957 | 33872 ft | 421 kts | 218° |
| 2026-05-05 15:17 | 53.12017 | 14.73407 | 33868 ft | 421 kts | 218° |
| 2026-05-05 15:18 | 53.07217 | 14.67897 | 33857 ft | 421 kts | 218° |
| 2026-05-05 15:18 | 53.02371 | 14.62349 | 33862 ft | 423 kts | 218° |
| 2026-05-05 15:19 | 52.97515 | 14.56806 | 33860 ft | 424 kts | 218° |
| 2026-05-05 15:19 | 52.92648 | 14.51268 | 33861 ft | 423 kts | 218° |
| 2026-05-05 15:20 | 52.87786 | 14.45749 | 33862 ft | 423 kts | 218° |
| 2026-05-05 15:20 | 52.82922 | 14.40242 | 33857 ft | 424 kts | 218° |
| 2026-05-05 15:21 | 52.78048 | 14.34740 | 33857 ft | 424 kts | 218° |
| 2026-05-05 15:21 | 52.73196 | 14.29279 | 33856 ft | 424 kts | 218° |
| 2026-05-05 15:22 | 52.68315 | 14.23799 | 33853 ft | 424 kts | 218° |
| 2026-05-05 15:22 | 52.63430 | 14.18330 | 33852 ft | 424 kts | 218° |
| 2026-05-05 15:23 | 52.58545 | 14.12876 | 33847 ft | 424 kts | 218° |
| 2026-05-05 15:23 | 52.53663 | 14.07440 | 33850 ft | 422 kts | 218° |
| 2026-05-05 15:24 | 52.48799 | 14.02040 | 33844 ft | 422 kts | 218° |
| 2026-05-05 15:24 | 52.43936 | 13.96653 | 33849 ft | 422 kts | 218° |
| 2026-05-05 15:25 | 52.39097 | 13.91308 | 33851 ft | 423 kts | 217° |
| 2026-05-05 15:25 | 52.34213 | 13.85928 | 33849 ft | 423 kts | 217° |
| 2026-05-05 15:26 | 52.29323 | 13.80558 | 33851 ft | 424 kts | 217° |
| 2026-05-05 15:26 | 52.24429 | 13.75197 | 33849 ft | 424 kts | 217° |
| 2026-05-05 15:27 | 52.19528 | 13.69843 | 33835 ft | 424 kts | 217° |
| 2026-05-05 15:27 | 52.14613 | 13.64485 | 33846 ft | 426 kts | 217° |
| 2026-05-05 15:28 | 52.09677 | 13.59123 | 33843 ft | 426 kts | 217° |
| 2026-05-05 15:28 | 52.04738 | 13.53772 | 33840 ft | 426 kts | 217° |
| 2026-05-05 15:29 | 51.99804 | 13.48440 | 33841 ft | 426 kts | 217° |
| 2026-05-05 15:29 | 51.94888 | 13.43140 | 33842 ft | 428 kts | 216° |
| 2026-05-05 15:30 | 51.89915 | 13.37794 | 33850 ft | 429 kts | 216° |
| 2026-05-05 15:30 | 51.84938 | 13.32458 | 33854 ft | 429 kts | 216° |
| 2026-05-05 15:31 | 51.79952 | 13.27128 | 33830 ft | 429 kts | 216° |
| 2026-05-05 15:31 | 51.74971 | 13.21818 | 33840 ft | 430 kts | 216° |
| 2026-05-05 15:32 | 51.69968 | 13.16497 | 33829 ft | 430 kts | 216° |
| 2026-05-05 15:32 | 51.64988 | 13.11216 | 33835 ft | 427 kts | 216° |
| 2026-05-05 15:33 | 51.60028 | 13.05969 | 33837 ft | 427 kts | 216° |
| 2026-05-05 15:33 | 51.55071 | 13.00701 | 33818 ft | 426 kts | 216° |
| 2026-05-05 15:34 | 51.50219 | 12.95207 | 33847 ft | 427 kts | 217° |
| 2026-05-05 15:34 | 51.45384 | 12.89653 | 33823 ft | 427 kts | 217° |
| 2026-05-05 15:35 | 51.40573 | 12.84188 | 33826 ft | 427 kts | 217° |
| 2026-05-05 15:35 | 51.35704 | 12.78708 | 33831 ft | 427 kts | 217° |
| 2026-05-05 15:36 | 51.30824 | 12.73240 | 33817 ft | 429 kts | 216° |
| 2026-05-05 15:36 | 51.25919 | 12.67759 | 33831 ft | 430 kts | 216° |
| 2026-05-05 15:37 | 51.21006 | 12.62284 | 33825 ft | 430 kts | 216° |
| 2026-05-05 15:37 | 51.16092 | 12.56819 | 33827 ft | 431 kts | 216° |
| 2026-05-05 15:38 | 51.11201 | 12.51395 | 33825 ft | 432 kts | 216° |
| 2026-05-05 15:38 | 51.06259 | 12.45929 | 33830 ft | 433 kts | 216° |
| 2026-05-05 15:39 | 51.01306 | 12.40464 | 33830 ft | 433 kts | 216° |
| 2026-05-05 15:39 | 50.96347 | 12.35008 | 33828 ft | 433 kts | 216° |
| 2026-05-05 15:40 | 50.91401 | 12.29581 | 33820 ft | 431 kts | 215° |
| 2026-05-05 15:40 | 50.86471 | 12.24184 | 33818 ft | 431 kts | 215° |
| 2026-05-05 15:41 | 50.81534 | 12.18795 | 33814 ft | 431 kts | 215° |
| 2026-05-05 15:41 | 50.76594 | 12.13416 | 33798 ft | 431 kts | 215° |
| 2026-05-05 15:42 | 50.71653 | 12.08049 | 33803 ft | 431 kts | 215° |
| 2026-05-05 15:42 | 50.66729 | 12.02716 | 33794 ft | 433 kts | 214° |
| 2026-05-05 15:43 | 50.61741 | 11.97329 | 33801 ft | 434 kts | 214° |
| 2026-05-05 15:43 | 50.56756 | 11.91958 | 33803 ft | 434 kts | 214° |
| 2026-05-05 15:44 | 50.51767 | 11.86596 | 33809 ft | 434 kts | 214° |
| 2026-05-05 15:44 | 50.46815 | 11.81288 | 33816 ft | 434 kts | 214° |
| 2026-05-05 15:45 | 50.41789 | 11.75915 | 33821 ft | 434 kts | 214° |
| 2026-05-05 15:45 | 50.36790 | 11.70585 | 33825 ft | 434 kts | 214° |
| 2026-05-05 15:46 | 50.31796 | 11.65273 | 33821 ft | 434 kts | 214° |
| 2026-05-05 15:46 | 50.26827 | 11.60002 | 33815 ft | 435 kts | 214° |
| 2026-05-05 15:47 | 50.21801 | 11.54684 | 33821 ft | 437 kts | 214° |
| 2026-05-05 15:47 | 50.16772 | 11.49378 | 33782 ft | 435 kts | 213° |
| 2026-05-05 15:48 | 50.11759 | 11.44100 | 33780 ft | 434 kts | 213° |
| 2026-05-05 15:48 | 50.06751 | 11.38841 | 33773 ft | 435 kts | 213° |
| 2026-05-05 15:49 | 50.01718 | 11.33570 | 33773 ft | 437 kts | 213° |
| 2026-05-05 15:49 | 49.96669 | 11.28297 | 33772 ft | 437 kts | 213° |
| 2026-05-05 15:50 | 49.91652 | 11.23070 | 33771 ft | 437 kts | 213° |
| 2026-05-05 15:50 | 49.86596 | 11.17817 | 33789 ft | 438 kts | 213° |
| 2026-05-05 15:51 | 49.81553 | 11.12599 | 33758 ft | 432 kts | 212° |
| 2026-05-05 15:51 | 49.76542 | 11.07415 | 33785 ft | 433 kts | 212° |
| 2026-05-05 15:52 | 49.71533 | 11.02243 | 33787 ft | 433 kts | 212° |
| 2026-05-05 15:52 | 49.66520 | 10.97083 | 33782 ft | 433 kts | 212° |
| 2026-05-05 15:53 | 49.61491 | 10.91923 | 33803 ft | 435 kts | 212° |
| 2026-05-05 15:53 | 49.56465 | 10.86779 | 33789 ft | 436 kts | 212° |
| 2026-05-05 15:54 | 49.51473 | 10.81468 | 33787 ft | 437 kts | 218° |
| 2026-05-05 15:54 | 49.47025 | 10.75036 | 33831 ft | 440 kts | 223° |
| 2026-05-05 15:55 | 49.42720 | 10.68287 | 33849 ft | 443 kts | 223° |
| 2026-05-05 15:55 | 49.38451 | 10.61449 | 33854 ft | 444 kts | 224° |
| 2026-05-05 15:56 | 49.34207 | 10.54525 | 33851 ft | 444 kts | 224° |
| 2026-05-05 15:56 | 49.30628 | 10.48890 | 33851 ft | 444 kts | 222° |
| 2026-05-05 15:57 | 49.26241 | 10.42238 | 33854 ft | 444 kts | 221° |
| 2026-05-05 15:57 | 49.21857 | 10.35599 | 33854 ft | 443 kts | 222° |
| 2026-05-05 15:58 | 49.17522 | 10.28898 | 33856 ft | 443 kts | 222° |
| 2026-05-05 15:58 | 49.13363 | 10.22025 | 33853 ft | 445 kts | 227° |
| 2026-05-05 15:59 | 49.09428 | 10.14691 | 33859 ft | 449 kts | 227° |
| 2026-05-05 15:59 | 49.05485 | 10.07211 | 33849 ft | 450 kts | 228° |
| 2026-05-05 16:00 | 49.01577 | 9.99803 | 33849 ft | 451 kts | 228° |
| 2026-05-05 16:00 | 48.97637 | 9.92370 | 33856 ft | 451 kts | 228° |
| 2026-05-05 16:01 | 48.93687 | 9.84955 | 33724 ft | 451 kts | 228° |
| 2026-05-05 16:01 | 48.91710 | 9.81252 | 33020 ft | 453 kts | 227° |
| 2026-05-05 16:01 | 48.89713 | 9.77520 | 32202 ft | 456 kts | 227° |
| 2026-05-05 16:01 | 48.87699 | 9.73760 | 31454 ft | 459 kts | 228° |
| 2026-05-05 16:02 | 48.85675 | 9.69977 | 30679 ft | 462 kts | 228° |
| 2026-05-05 16:02 | 48.83638 | 9.66185 | 29895 ft | 465 kts | 227° |
| 2026-05-05 16:02 | 48.81588 | 9.62375 | 29021 ft | 468 kts | 228° |
| 2026-05-05 16:02 | 48.79529 | 9.58554 | 28413 ft | 465 kts | 228° |
| 2026-05-05 16:03 | 48.77521 | 9.54829 | 27874 ft | 461 kts | 228° |
| 2026-05-05 16:03 | 48.75473 | 9.51034 | 27309 ft | 457 kts | 228° |
| 2026-05-05 16:03 | 48.73491 | 9.47365 | 26761 ft | 454 kts | 228° |
| 2026-05-05 16:03 | 48.71499 | 9.43680 | 26209 ft | 451 kts | 228° |
| 2026-05-05 16:04 | 48.69516 | 9.40019 | 25657 ft | 448 kts | 228° |
| 2026-05-05 16:04 | 48.67542 | 9.36384 | 25090 ft | 446 kts | 229° |
| 2026-05-05 16:04 | 48.65576 | 9.32773 | 24538 ft | 443 kts | 229° |
| 2026-05-05 16:04 | 48.63622 | 9.29186 | 23973 ft | 441 kts | 228° |
| 2026-05-05 16:05 | 48.61492 | 9.25870 | 23426 ft | 437 kts | 219° |
| 2026-05-05 16:05 | 48.59165 | 9.22936 | 22796 ft | 434 kts | 217° |
| 2026-05-05 16:05 | 48.56791 | 9.20148 | 22229 ft | 430 kts | 216° |
| 2026-05-05 16:05 | 48.54409 | 9.17463 | 21673 ft | 426 kts | 215° |
| 2026-05-05 16:06 | 48.52021 | 9.14821 | 21120 ft | 423 kts | 215° |
| 2026-05-05 16:06 | 48.49654 | 9.12218 | 20571 ft | 420 kts | 215° |
| 2026-05-05 16:06 | 48.47308 | 9.09636 | 20025 ft | 416 kts | 216° |
| 2026-05-05 16:06 | 48.44978 | 9.07063 | 19474 ft | 414 kts | 216° |
| 2026-05-05 16:07 | 48.42664 | 9.04501 | 18936 ft | 411 kts | 216° |
| 2026-05-05 16:07 | 48.40362 | 9.01947 | 18409 ft | 409 kts | 216° |
| 2026-05-05 16:07 | 48.38110 | 8.99448 | 17891 ft | 405 kts | 216° |
| 2026-05-05 16:07 | 48.35843 | 8.96934 | 17318 ft | 402 kts | 216° |
| 2026-05-05 16:08 | 48.33602 | 8.94451 | 16780 ft | 399 kts | 216° |
| 2026-05-05 16:08 | 48.31376 | 8.91988 | 16237 ft | 395 kts | 216° |
| 2026-05-05 16:08 | 48.29173 | 8.89542 | 15719 ft | 391 kts | 217° |
| 2026-05-05 16:08 | 48.26994 | 8.87116 | 15194 ft | 388 kts | 217° |
| 2026-05-05 16:09 | 48.24839 | 8.84718 | 14729 ft | 384 kts | 217° |
| 2026-05-05 16:09 | 48.22699 | 8.82340 | 14215 ft | 381 kts | 217° |
| 2026-05-05 16:09 | 48.20578 | 8.79984 | 13757 ft | 378 kts | 217° |
| 2026-05-05 16:09 | 48.18493 | 8.77671 | 13105 ft | 364 kts | 217° |
| 2026-05-05 16:10 | 48.16533 | 8.75501 | 12619 ft | 338 kts | 217° |
| 2026-05-05 16:10 | 48.14681 | 8.73478 | 12170 ft | 328 kts | 217° |
| 2026-05-05 16:10 | 48.12813 | 8.71446 | 11857 ft | 330 kts | 217° |
| 2026-05-05 16:10 | 48.10992 | 8.69468 | 11723 ft | 319 kts | 217° |
| 2026-05-05 16:11 | 48.09243 | 8.67569 | 11589 ft | 310 kts | 217° |
| 2026-05-05 16:11 | 48.04224 | 8.62121 | 11296 ft | 285 kts | 217° |
| 2026-05-05 16:12 | 48.02639 | 8.60403 | 11211 ft | 278 kts | 217° |
| 2026-05-05 16:12 | 47.99571 | 8.57078 | 10897 ft | 267 kts | 217° |
| 2026-05-05 16:13 | 47.95861 | 8.53064 | 10310 ft | 266 kts | 217° |
| 2026-05-05 16:13 | 47.94562 | 8.51809 | 10084 ft | 266 kts | 208° |
| 2026-05-05 16:13 | 47.92811 | 8.50892 | 9784 ft | 268 kts | 197° |
| 2026-05-05 16:14 | 47.89160 | 8.49766 | 9176 ft | 267 kts | 194° |
| 2026-05-05 16:14 | 47.85542 | 8.48695 | 8584 ft | 264 kts | 195° |
| 2026-05-05 16:15 | 47.81935 | 8.47612 | 7917 ft | 265 kts | 195° |
| 2026-05-05 16:15 | 47.78394 | 8.46547 | 7377 ft | 261 kts | 195° |
| 2026-05-05 16:16 | 47.74823 | 8.45462 | 6752 ft | 261 kts | 195° |
| 2026-05-05 16:16 | 47.71704 | 8.44527 | 6321 ft | 257 kts | 195° |
| 2026-05-05 16:17 | 47.69934 | 8.43935 | 6114 ft | 250 kts | 200° |
| 2026-05-05 16:17 | 47.68422 | 8.42755 | 5814 ft | 245 kts | 220° |
| 2026-05-05 16:18 | 47.66128 | 8.39288 | 5208 ft | 223 kts | 228° |
| 2026-05-05 16:18 | 47.65119 | 8.37649 | 4943 ft | 213 kts | 228° |
| 2026-05-05 16:18 | 47.62745 | 8.35534 | 4521 ft | 199 kts | 180° |
| 2026-05-05 16:19 | 47.61425 | 8.36011 | 4368 ft | 191 kts | 162° |
| 2026-05-05 16:19 | 47.60317 | 8.37017 | 4192 ft | 185 kts | 141° |
| 2026-05-05 16:19 | 47.58523 | 8.39568 | 3933 ft | 172 kts | 141° |
| 2026-05-05 16:20 | 47.56719 | 8.41999 | 3716 ft | 173 kts | 141° |
| 2026-05-05 16:20 | 47.55072 | 8.44255 | 3307 ft | 154 kts | 142° |
| 2026-05-05 16:21 | 47.53488 | 8.46418 | 2903 ft | 156 kts | 141° |
| 2026-05-05 16:22 | 47.51154 | 8.49603 | 2255 ft | 149 kts | 138° |
| 2026-05-05 16:22 | 47.49593 | 8.51710 | 1834 ft | 156 kts | 141° |
| 2026-05-05 16:23 | 47.47995 | 8.53913 | 1422 ft | 155 kts | 141° |
| 2026-05-05 16:23 | 47.47264 | 8.54887 | 1386 ft | 121 kts | 137° |
| 2026-05-05 16:23 | 47.46485 | 8.55914 | 1410 ft | 49 kts | 159° |
| 2026-05-05 16:24 | 47.46244 | 8.55983 | 1414 ft | 6 kts | 191° |
| 2026-05-05 16:24 | 47.46238 | 8.55981 | 1412 ft | 0 kts | 191° |
| 2026-05-05 16:25 | 47.46230 | 8.55979 | 1413 ft | 1 kts | 188° |
| 2026-05-05 16:25 | 47.46221 | 8.55981 | 1414 ft | 2 kts | 176° |
| 2026-05-05 16:25 | 47.46203 | 8.55987 | 1416 ft | 2 kts | 163° |
| 2026-05-05 16:26 | 47.46136 | 8.55999 | 1410 ft | 7 kts | 187° |
| 2026-05-05 16:26 | 47.45988 | 8.55971 | 1415 ft | 15 kts | 187° |
| 2026-05-05 16:27 | 47.45939 | 8.55872 | 1417 ft | 13 kts | 268° |
| 2026-05-05 16:27 | 47.45948 | 8.55723 | 1406 ft | 16 kts | 278° |
| 2026-05-05 16:27 | 47.45962 | 8.55540 | 1410 ft | 20 kts | 275° |
| 2026-05-05 16:27 | 47.45972 | 8.55398 | 1404 ft | 11 kts | 276° |
| 2026-05-05 16:28 | 47.46013 | 8.55349 | 1406 ft | 7 kts | 2° |
| 2026-05-05 16:28 | 47.46044 | 8.55354 | 1404 ft | 1 kts | 6° |
| 2026-05-05 16:28 | 47.46060 | 8.55356 | 1403 ft | 2 kts | 6° |
| 2026-05-05 16:28 | 47.46062 | 8.55356 | 1403 ft | 0 kts | 6° |